sensor_id;sensor_type;location;lat;lon;timestamp;temperature;humidity
24254;DHT22;12381;51.152;4.172;2022-10-13T00:00:33;14.00;99.90
24254;DHT22;12381;51.152;4.172;2022-10-13T00:03:02;14.10;99.90
24254;DHT22;12381;51.152;4.172;2022-10-13T00:05:29;14.00;99.90
24254;DHT22;12381;51.152;4.172;2022-10-13T00:07:55;14.00;99.90
24254;DHT22;12381;51.152;4.172;2022-10-13T00:10:21;14.10;99.90
24254;DHT22;12381;51.152;4.172;2022-10-13T00:12:48;14.10;99.90
24254;DHT22;12381;51.152;4.172;2022-10-13T00:15:14;14.00;99.90
24254;DHT22;12381;51.152;4.172;2022-10-13T00:17:39;14.00;99.90
24254;DHT22;12381;51.152;4.172;2022-10-13T00:20:07;14.00;99.90
24254;DHT22;12381;51.152;4.172;2022-10-13T00:22:33;14.00;99.90
24254;DHT22;12381;51.152;4.172;2022-10-13T00:24:59;14.00;99.90
24254;DHT22;12381;51.152;4.172;2022-10-13T00:27:25;14.00;99.90
24254;DHT22;12381;51.152;4.172;2022-10-13T00:29:51;14.00;99.90
24254;DHT22;12381;51.152;4.172;2022-10-13T00:32:18;14.00;99.90
24254;DHT22;12381;51.152;4.172;2022-10-13T00:34:51;14.00;99.90
24254;DHT22;12381;51.152;4.172;2022-10-13T00:37:17;14.00;99.90
24254;DHT22;12381;51.152;4.172;2022-10-13T00:39:43;14.00;99.90
24254;DHT22;12381;51.152;4.172;2022-10-13T00:42:12;14.00;99.90
24254;DHT22;12381;51.152;4.172;2022-10-13T00:45:01;14.10;99.90
24254;DHT22;12381;51.152;4.172;2022-10-13T00:47:42;14.10;99.90
24254;DHT22;12381;51.152;4.172;2022-10-13T00:50:17;14.00;99.90
24254;DHT22;12381;51.152;4.172;2022-10-13T00:52:44;14.10;99.90
24254;DHT22;12381;51.152;4.172;2022-10-13T00:55:12;14.10;99.90
24254;DHT22;12381;51.152;4.172;2022-10-13T00:57:43;14.10;99.90
24254;DHT22;12381;51.152;4.172;2022-10-13T01:00:11;14.10;99.90
24254;DHT22;12381;51.152;4.172;2022-10-13T01:02:43;14.10;99.90
24254;DHT22;12381;51.152;4.172;2022-10-13T01:05:08;14.10;99.90
24254;DHT22;12381;51.152;4.172;2022-10-13T01:07:34;14.10;99.90
24254;DHT22;12381;51.152;4.172;2022-10-13T01:10:01;14.10;99.90
24254;DHT22;12381;51.152;4.172;2022-10-13T01:24:11;14.10;99.90
24254;DHT22;12381;51.152;4.172;2022-10-13T01:35:08;14.10;99.90
24254;DHT22;12381;51.152;4.172;2022-10-13T01:40:29;14.10;99.90
24254;DHT22;12381;51.152;4.172;2022-10-13T01:45:50;14.10;99.90
24254;DHT22;12381;51.152;4.172;2022-10-13T01:48:18;14.10;99.90
24254;DHT22;12381;51.152;4.172;2022-10-13T01:50:44;14.10;99.90
24254;DHT22;12381;51.152;4.172;2022-10-13T01:53:12;14.10;99.90
24254;DHT22;12381;51.152;4.172;2022-10-13T01:55:48;14.10;99.90
24254;DHT22;12381;51.152;4.172;2022-10-13T01:58:14;14.00;99.90
24254;DHT22;12381;51.152;4.172;2022-10-13T02:00:45;14.10;99.90
24254;DHT22;12381;51.152;4.172;2022-10-13T02:03:28;14.00;99.90
24254;DHT22;12381;51.152;4.172;2022-10-13T02:06:01;14.00;99.90
24254;DHT22;12381;51.152;4.172;2022-10-13T02:11:31;14.00;99.90
24254;DHT22;12381;51.152;4.172;2022-10-13T02:14:17;14.00;99.90
24254;DHT22;12381;51.152;4.172;2022-10-13T02:16:44;14.00;99.90
24254;DHT22;12381;51.152;4.172;2022-10-13T02:19:14;14.00;99.90
24254;DHT22;12381;51.152;4.172;2022-10-13T02:21:40;14.00;99.90
24254;DHT22;12381;51.152;4.172;2022-10-13T02:26:37;14.00;99.90
24254;DHT22;12381;51.152;4.172;2022-10-13T02:29:11;13.90;99.90
24254;DHT22;12381;51.152;4.172;2022-10-13T02:31:39;13.90;99.90
24254;DHT22;12381;51.152;4.172;2022-10-13T02:34:05;13.90;99.90
24254;DHT22;12381;51.152;4.172;2022-10-13T02:36:31;13.90;99.90
24254;DHT22;12381;51.152;4.172;2022-10-13T02:38:57;13.90;99.90
24254;DHT22;12381;51.152;4.172;2022-10-13T02:41:22;13.90;99.90
24254;DHT22;12381;51.152;4.172;2022-10-13T02:43:48;13.80;99.90
24254;DHT22;12381;51.152;4.172;2022-10-13T02:46:14;13.90;99.90
24254;DHT22;12381;51.152;4.172;2022-10-13T02:48:39;13.80;99.90
24254;DHT22;12381;51.152;4.172;2022-10-13T02:51:05;13.80;99.90
24254;DHT22;12381;51.152;4.172;2022-10-13T02:53:31;13.90;99.90
24254;DHT22;12381;51.152;4.172;2022-10-13T02:55:57;13.90;99.90
24254;DHT22;12381;51.152;4.172;2022-10-13T02:58:22;13.90;99.90
24254;DHT22;12381;51.152;4.172;2022-10-13T03:00:48;13.80;99.90
24254;DHT22;12381;51.152;4.172;2022-10-13T03:03:14;13.80;99.90
24254;DHT22;12381;51.152;4.172;2022-10-13T03:05:39;13.90;99.90
24254;DHT22;12381;51.152;4.172;2022-10-13T03:08:05;13.80;99.90
24254;DHT22;12381;51.152;4.172;2022-10-13T03:10:31;13.80;99.90
24254;DHT22;12381;51.152;4.172;2022-10-13T03:12:57;13.90;99.90
24254;DHT22;12381;51.152;4.172;2022-10-13T03:15:23;13.90;99.90
24254;DHT22;12381;51.152;4.172;2022-10-13T03:17:49;13.80;99.90
24254;DHT22;12381;51.152;4.172;2022-10-13T03:20:15;13.80;99.90
24254;DHT22;12381;51.152;4.172;2022-10-13T03:22:40;13.80;99.90
24254;DHT22;12381;51.152;4.172;2022-10-13T03:25:06;13.90;99.90
24254;DHT22;12381;51.152;4.172;2022-10-13T03:27:33;13.90;99.90
24254;DHT22;12381;51.152;4.172;2022-10-13T03:29:59;13.90;99.90
24254;DHT22;12381;51.152;4.172;2022-10-13T03:32:25;13.90;99.90
24254;DHT22;12381;51.152;4.172;2022-10-13T03:34:50;13.90;99.90
24254;DHT22;12381;51.152;4.172;2022-10-13T03:37:16;13.90;99.90
24254;DHT22;12381;51.152;4.172;2022-10-13T03:39:42;13.90;99.90
24254;DHT22;12381;51.152;4.172;2022-10-13T03:42:09;13.90;99.90
24254;DHT22;12381;51.152;4.172;2022-10-13T03:44:34;13.90;99.90
24254;DHT22;12381;51.152;4.172;2022-10-13T03:47:00;13.90;99.90
24254;DHT22;12381;51.152;4.172;2022-10-13T03:49:26;13.90;99.90
24254;DHT22;12381;51.152;4.172;2022-10-13T03:51:51;13.90;99.90
24254;DHT22;12381;51.152;4.172;2022-10-13T03:54:17;13.90;99.90
24254;DHT22;12381;51.152;4.172;2022-10-13T03:56:43;13.90;99.90
24254;DHT22;12381;51.152;4.172;2022-10-13T03:59:11;13.90;99.90
24254;DHT22;12381;51.152;4.172;2022-10-13T04:01:38;13.90;99.90
24254;DHT22;12381;51.152;4.172;2022-10-13T04:04:04;13.90;99.90
24254;DHT22;12381;51.152;4.172;2022-10-13T04:06:31;13.90;99.90
24254;DHT22;12381;51.152;4.172;2022-10-13T04:11:27;13.80;99.90
24254;DHT22;12381;51.152;4.172;2022-10-13T04:13:56;13.80;99.90
24254;DHT22;12381;51.152;4.172;2022-10-13T04:16:24;13.90;99.90
24254;DHT22;12381;51.152;4.172;2022-10-13T04:21:28;13.80;99.90
24254;DHT22;12381;51.152;4.172;2022-10-13T04:23:55;13.90;99.90
24254;DHT22;12381;51.152;4.172;2022-10-13T04:26:23;13.90;99.90
24254;DHT22;12381;51.152;4.172;2022-10-13T04:31:21;13.90;99.90
24254;DHT22;12381;51.152;4.172;2022-10-13T04:33:48;13.80;99.90
24254;DHT22;12381;51.152;4.172;2022-10-13T04:36:14;13.80;99.90
24254;DHT22;12381;51.152;4.172;2022-10-13T04:38:41;13.80;99.90
24254;DHT22;12381;51.152;4.172;2022-10-13T04:43:39;13.80;99.90
24254;DHT22;12381;51.152;4.172;2022-10-13T04:46:17;13.80;99.90
24254;DHT22;12381;51.152;4.172;2022-10-13T04:48:44;13.80;99.90
24254;DHT22;12381;51.152;4.172;2022-10-13T04:51:11;13.80;99.90
24254;DHT22;12381;51.152;4.172;2022-10-13T04:53:38;13.80;99.90
24254;DHT22;12381;51.152;4.172;2022-10-13T04:56:06;13.90;99.90
24254;DHT22;12381;51.152;4.172;2022-10-13T04:58:36;13.90;99.90
24254;DHT22;12381;51.152;4.172;2022-10-13T05:01:04;13.90;99.90
24254;DHT22;12381;51.152;4.172;2022-10-13T05:03:29;13.90;99.90
24254;DHT22;12381;51.152;4.172;2022-10-13T05:05:56;13.90;99.90
24254;DHT22;12381;51.152;4.172;2022-10-13T05:10:58;13.90;99.90
24254;DHT22;12381;51.152;4.172;2022-10-13T05:13:25;13.90;99.90
24254;DHT22;12381;51.152;4.172;2022-10-13T05:15:51;13.90;99.90
24254;DHT22;12381;51.152;4.172;2022-10-13T05:18:17;13.90;99.90
24254;DHT22;12381;51.152;4.172;2022-10-13T05:20:42;13.90;99.90
24254;DHT22;12381;51.152;4.172;2022-10-13T05:23:08;13.90;99.90
24254;DHT22;12381;51.152;4.172;2022-10-13T05:25:35;13.90;99.90
24254;DHT22;12381;51.152;4.172;2022-10-13T05:28:02;13.90;99.90
24254;DHT22;12381;51.152;4.172;2022-10-13T05:30:28;13.90;99.90
24254;DHT22;12381;51.152;4.172;2022-10-13T05:32:53;13.90;99.90
24254;DHT22;12381;51.152;4.172;2022-10-13T05:35:19;13.90;99.90
24254;DHT22;12381;51.152;4.172;2022-10-13T05:37:45;13.90;99.90
24254;DHT22;12381;51.152;4.172;2022-10-13T05:40:11;13.90;99.90
24254;DHT22;12381;51.152;4.172;2022-10-13T05:42:36;13.90;99.90
24254;DHT22;12381;51.152;4.172;2022-10-13T05:45:03;13.90;99.90
24254;DHT22;12381;51.152;4.172;2022-10-13T05:47:28;13.90;99.90
24254;DHT22;12381;51.152;4.172;2022-10-13T05:49:54;14.00;99.90
24254;DHT22;12381;51.152;4.172;2022-10-13T05:52:20;13.90;99.90
24254;DHT22;12381;51.152;4.172;2022-10-13T05:54:50;14.00;99.90
24254;DHT22;12381;51.152;4.172;2022-10-13T05:57:18;13.90;99.90
24254;DHT22;12381;51.152;4.172;2022-10-13T05:59:53;14.00;99.90
24254;DHT22;12381;51.152;4.172;2022-10-13T06:02:20;14.00;99.90
24254;DHT22;12381;51.152;4.172;2022-10-13T06:07:18;13.90;99.90
24254;DHT22;12381;51.152;4.172;2022-10-13T06:09:46;13.90;99.90
24254;DHT22;12381;51.152;4.172;2022-10-13T06:12:11;14.00;99.90
24254;DHT22;12381;51.152;4.172;2022-10-13T06:16:00;14.00;99.90
24254;DHT22;12381;51.152;4.172;2022-10-13T06:18:27;14.00;99.90
24254;DHT22;12381;51.152;4.172;2022-10-13T06:20:52;14.00;99.90
24254;DHT22;12381;51.152;4.172;2022-10-13T06:23:18;13.90;99.90
24254;DHT22;12381;51.152;4.172;2022-10-13T06:25:48;14.00;99.90
24254;DHT22;12381;51.152;4.172;2022-10-13T06:28:14;14.00;99.90
24254;DHT22;12381;51.152;4.172;2022-10-13T06:30:40;14.00;99.90
24254;DHT22;12381;51.152;4.172;2022-10-13T06:33:07;14.00;99.90
24254;DHT22;12381;51.152;4.172;2022-10-13T06:35:34;14.00;99.90
24254;DHT22;12381;51.152;4.172;2022-10-13T06:38:00;14.00;99.90
24254;DHT22;12381;51.152;4.172;2022-10-13T06:40:26;14.00;99.90
24254;DHT22;12381;51.152;4.172;2022-10-13T06:42:52;14.00;99.90
24254;DHT22;12381;51.152;4.172;2022-10-13T06:45:17;14.00;99.90
24254;DHT22;12381;51.152;4.172;2022-10-13T06:47:52;14.00;99.90
24254;DHT22;12381;51.152;4.172;2022-10-13T06:50:18;14.00;99.90
24254;DHT22;12381;51.152;4.172;2022-10-13T06:52:44;14.10;99.90
24254;DHT22;12381;51.152;4.172;2022-10-13T06:55:10;14.00;99.90
24254;DHT22;12381;51.152;4.172;2022-10-13T06:57:35;14.10;99.90
24254;DHT22;12381;51.152;4.172;2022-10-13T07:00:02;14.10;99.90
24254;DHT22;12381;51.152;4.172;2022-10-13T07:02:27;14.10;99.90
24254;DHT22;12381;51.152;4.172;2022-10-13T07:04:53;14.10;99.90
24254;DHT22;12381;51.152;4.172;2022-10-13T07:07:19;14.10;99.90
24254;DHT22;12381;51.152;4.172;2022-10-13T07:09:44;14.10;99.90
24254;DHT22;12381;51.152;4.172;2022-10-13T07:12:12;14.20;99.90
24254;DHT22;12381;51.152;4.172;2022-10-13T07:14:38;14.20;99.90
24254;DHT22;12381;51.152;4.172;2022-10-13T07:17:03;14.20;99.90
24254;DHT22;12381;51.152;4.172;2022-10-13T07:19:29;14.20;99.90
24254;DHT22;12381;51.152;4.172;2022-10-13T07:21:55;14.20;99.90
24254;DHT22;12381;51.152;4.172;2022-10-13T07:24:21;14.20;99.90
24254;DHT22;12381;51.152;4.172;2022-10-13T07:26:47;14.20;99.90
24254;DHT22;12381;51.152;4.172;2022-10-13T07:29:13;14.20;99.90
24254;DHT22;12381;51.152;4.172;2022-10-13T07:31:39;14.20;99.90
24254;DHT22;12381;51.152;4.172;2022-10-13T07:34:04;14.20;99.90
24254;DHT22;12381;51.152;4.172;2022-10-13T07:36:32;14.20;99.90
24254;DHT22;12381;51.152;4.172;2022-10-13T07:38:57;14.20;99.90
24254;DHT22;12381;51.152;4.172;2022-10-13T07:41:24;14.20;99.90
24254;DHT22;12381;51.152;4.172;2022-10-13T07:43:54;14.20;99.90
24254;DHT22;12381;51.152;4.172;2022-10-13T07:46:19;14.20;99.90
24254;DHT22;12381;51.152;4.172;2022-10-13T07:48:45;14.20;99.90
24254;DHT22;12381;51.152;4.172;2022-10-13T07:51:12;14.30;99.90
24254;DHT22;12381;51.152;4.172;2022-10-13T07:53:39;14.30;99.90
24254;DHT22;12381;51.152;4.172;2022-10-13T07:56:06;14.30;99.90
24254;DHT22;12381;51.152;4.172;2022-10-13T07:58:35;14.30;99.90
24254;DHT22;12381;51.152;4.172;2022-10-13T08:01:01;14.30;99.90
24254;DHT22;12381;51.152;4.172;2022-10-13T08:03:27;14.40;99.90
24254;DHT22;12381;51.152;4.172;2022-10-13T08:05:53;14.40;99.90
24254;DHT22;12381;51.152;4.172;2022-10-13T08:08:20;14.40;99.90
24254;DHT22;12381;51.152;4.172;2022-10-13T08:10:46;14.40;99.90
24254;DHT22;12381;51.152;4.172;2022-10-13T08:13:12;14.40;99.90
24254;DHT22;12381;51.152;4.172;2022-10-13T08:15:42;14.40;99.90
24254;DHT22;12381;51.152;4.172;2022-10-13T08:18:09;14.40;99.90
24254;DHT22;12381;51.152;4.172;2022-10-13T08:20:41;14.40;99.90
24254;DHT22;12381;51.152;4.172;2022-10-13T08:23:07;14.50;99.90
24254;DHT22;12381;51.152;4.172;2022-10-13T08:25:40;14.50;99.90
24254;DHT22;12381;51.152;4.172;2022-10-13T08:28:18;14.50;99.90
24254;DHT22;12381;51.152;4.172;2022-10-13T08:30:44;14.50;99.90
24254;DHT22;12381;51.152;4.172;2022-10-13T08:33:10;14.50;99.90
24254;DHT22;12381;51.152;4.172;2022-10-13T08:35:36;14.50;99.90
24254;DHT22;12381;51.152;4.172;2022-10-13T08:38:01;14.60;99.90
24254;DHT22;12381;51.152;4.172;2022-10-13T08:40:27;14.60;99.90
24254;DHT22;12381;51.152;4.172;2022-10-13T08:42:53;14.60;99.90
24254;DHT22;12381;51.152;4.172;2022-10-13T08:45:22;14.70;99.90
24254;DHT22;12381;51.152;4.172;2022-10-13T08:48:00;14.60;99.90
24254;DHT22;12381;51.152;4.172;2022-10-13T08:50:31;14.70;99.90
24254;DHT22;12381;51.152;4.172;2022-10-13T08:53:00;14.80;99.90
24254;DHT22;12381;51.152;4.172;2022-10-13T08:55:32;14.80;99.90
24254;DHT22;12381;51.152;4.172;2022-10-13T08:58:01;14.90;99.90
24254;DHT22;12381;51.152;4.172;2022-10-13T09:00:30;14.90;99.90
24254;DHT22;12381;51.152;4.172;2022-10-13T09:03:06;14.90;99.90
24254;DHT22;12381;51.152;4.172;2022-10-13T09:06:31;14.90;99.90
24254;DHT22;12381;51.152;4.172;2022-10-13T09:08:45;14.90;99.90
24254;DHT22;12381;51.152;4.172;2022-10-13T09:11:13;14.80;99.90
24254;DHT22;12381;51.152;4.172;2022-10-13T09:13:39;14.80;99.90
24254;DHT22;12381;51.152;4.172;2022-10-13T09:16:05;14.80;99.90
24254;DHT22;12381;51.152;4.172;2022-10-13T09:18:32;14.80;99.90
24254;DHT22;12381;51.152;4.172;2022-10-13T09:21:20;14.90;99.90
24254;DHT22;12381;51.152;4.172;2022-10-13T09:23:49;14.90;99.90
24254;DHT22;12381;51.152;4.172;2022-10-13T09:26:21;15.00;99.90
24254;DHT22;12381;51.152;4.172;2022-10-13T09:28:48;15.00;99.90
24254;DHT22;12381;51.152;4.172;2022-10-13T09:31:18;15.00;99.90
24254;DHT22;12381;51.152;4.172;2022-10-13T09:33:46;15.00;99.90
24254;DHT22;12381;51.152;4.172;2022-10-13T09:36:15;14.90;99.90
24254;DHT22;12381;51.152;4.172;2022-10-13T09:38:44;15.00;99.90
24254;DHT22;12381;51.152;4.172;2022-10-13T09:41:29;15.00;99.90
24254;DHT22;12381;51.152;4.172;2022-10-13T09:43:56;15.00;99.90
24254;DHT22;12381;51.152;4.172;2022-10-13T09:49:06;14.90;99.90
24254;DHT22;12381;51.152;4.172;2022-10-13T09:51:39;15.00;99.90
24254;DHT22;12381;51.152;4.172;2022-10-13T09:54:21;15.00;99.90
24254;DHT22;12381;51.152;4.172;2022-10-13T09:59:32;15.00;99.90
24254;DHT22;12381;51.152;4.172;2022-10-13T10:02:11;15.00;99.90
24254;DHT22;12381;51.152;4.172;2022-10-13T10:04:40;15.00;99.90
24254;DHT22;12381;51.152;4.172;2022-10-13T10:07:14;15.00;99.90
24254;DHT22;12381;51.152;4.172;2022-10-13T10:09:48;15.10;99.90
24254;DHT22;12381;51.152;4.172;2022-10-13T10:12:18;15.10;99.90
24254;DHT22;12381;51.152;4.172;2022-10-13T10:14:45;15.10;99.90
24254;DHT22;12381;51.152;4.172;2022-10-13T10:17:41;15.10;99.90
24254;DHT22;12381;51.152;4.172;2022-10-13T10:23:00;15.20;99.90
24254;DHT22;12381;51.152;4.172;2022-10-13T10:25:29;15.20;99.90
24254;DHT22;12381;51.152;4.172;2022-10-13T10:30:44;15.40;99.90
24254;DHT22;12381;51.152;4.172;2022-10-13T10:33:17;15.40;99.90
24254;DHT22;12381;51.152;4.172;2022-10-13T10:36:08;15.50;99.90
24254;DHT22;12381;51.152;4.172;2022-10-13T10:38:51;15.50;99.90
24254;DHT22;12381;51.152;4.172;2022-10-13T10:46:45;15.40;99.90
24254;DHT22;12381;51.152;4.172;2022-10-13T10:49:33;15.50;99.90
24254;DHT22;12381;51.152;4.172;2022-10-13T10:52:09;15.50;99.90
24254;DHT22;12381;51.152;4.172;2022-10-13T10:57:38;15.50;99.90
24254;DHT22;12381;51.152;4.172;2022-10-13T11:00:14;15.50;99.90
24254;DHT22;12381;51.152;4.172;2022-10-13T11:05:21;15.50;99.90
24254;DHT22;12381;51.152;4.172;2022-10-13T11:10:20;15.60;99.90
24254;DHT22;12381;51.152;4.172;2022-10-13T11:17:50;15.60;99.90
24254;DHT22;12381;51.152;4.172;2022-10-13T11:25:39;15.50;99.90
24254;DHT22;12381;51.152;4.172;2022-10-13T11:36:41;15.40;99.90
24254;DHT22;12381;51.152;4.172;2022-10-13T12:01:01;15.50;99.90
24254;DHT22;12381;51.152;4.172;2022-10-13T12:03:36;15.50;99.90
24254;DHT22;12381;51.152;4.172;2022-10-13T12:06:24;15.50;99.90
24254;DHT22;12381;51.152;4.172;2022-10-13T12:08:56;15.60;99.90
24254;DHT22;12381;51.152;4.172;2022-10-13T12:11:28;15.60;99.90
24254;DHT22;12381;51.152;4.172;2022-10-13T12:13:55;15.70;99.90
24254;DHT22;12381;51.152;4.172;2022-10-13T12:16:21;15.70;99.90
24254;DHT22;12381;51.152;4.172;2022-10-13T12:18:46;15.70;99.90
24254;DHT22;12381;51.152;4.172;2022-10-13T12:21:18;15.70;99.90
24254;DHT22;12381;51.152;4.172;2022-10-13T12:23:45;15.70;99.90
24254;DHT22;12381;51.152;4.172;2022-10-13T12:26:15;15.80;99.90
24254;DHT22;12381;51.152;4.172;2022-10-13T12:29:00;15.70;99.90
24254;DHT22;12381;51.152;4.172;2022-10-13T12:31:29;15.80;99.90
24254;DHT22;12381;51.152;4.172;2022-10-13T12:33:59;15.80;99.90
24254;DHT22;12381;51.152;4.172;2022-10-13T12:36:30;15.90;99.90
24254;DHT22;12381;51.152;4.172;2022-10-13T12:39:10;15.80;99.90
24254;DHT22;12381;51.152;4.172;2022-10-13T12:41:41;15.90;99.90
24254;DHT22;12381;51.152;4.172;2022-10-13T12:44:19;16.00;99.90
24254;DHT22;12381;51.152;4.172;2022-10-13T12:46:51;16.00;99.90
24254;DHT22;12381;51.152;4.172;2022-10-13T12:49:32;16.00;99.90
24254;DHT22;12381;51.152;4.172;2022-10-13T12:52:05;16.10;99.90
24254;DHT22;12381;51.152;4.172;2022-10-13T12:54:34;16.10;99.90
24254;DHT22;12381;51.152;4.172;2022-10-13T12:57:04;16.10;99.90
24254;DHT22;12381;51.152;4.172;2022-10-13T12:59:30;16.10;99.90
24254;DHT22;12381;51.152;4.172;2022-10-13T13:02:01;16.10;99.90
24254;DHT22;12381;51.152;4.172;2022-10-13T13:04:38;16.20;99.90
24254;DHT22;12381;51.152;4.172;2022-10-13T13:07:28;16.30;99.90
24254;DHT22;12381;51.152;4.172;2022-10-13T13:10:15;16.20;99.90
24254;DHT22;12381;51.152;4.172;2022-10-13T13:12:41;16.20;99.90
24254;DHT22;12381;51.152;4.172;2022-10-13T13:15:31;16.20;99.90
24254;DHT22;12381;51.152;4.172;2022-10-13T13:20:48;16.00;99.90
24254;DHT22;12381;51.152;4.172;2022-10-13T13:23:14;16.00;99.90
24254;DHT22;12381;51.152;4.172;2022-10-13T13:26:10;16.00;99.90
24254;DHT22;12381;51.152;4.172;2022-10-13T13:28:36;16.00;99.90
24254;DHT22;12381;51.152;4.172;2022-10-13T13:31:02;15.90;99.90
24254;DHT22;12381;51.152;4.172;2022-10-13T13:33:28;16.00;99.90
24254;DHT22;12381;51.152;4.172;2022-10-13T13:35:54;16.00;99.90
24254;DHT22;12381;51.152;4.172;2022-10-13T13:38:19;16.10;99.90
24254;DHT22;12381;51.152;4.172;2022-10-13T13:40:45;16.10;99.90
24254;DHT22;12381;51.152;4.172;2022-10-13T13:43:10;16.20;99.90
24254;DHT22;12381;51.152;4.172;2022-10-13T13:45:36;16.10;99.90
24254;DHT22;12381;51.152;4.172;2022-10-13T13:48:02;16.10;99.90
24254;DHT22;12381;51.152;4.172;2022-10-13T13:50:33;16.10;99.90
24254;DHT22;12381;51.152;4.172;2022-10-13T13:53:00;16.20;99.90
24254;DHT22;12381;51.152;4.172;2022-10-13T13:55:26;16.10;99.90
24254;DHT22;12381;51.152;4.172;2022-10-13T13:57:54;16.10;99.90
24254;DHT22;12381;51.152;4.172;2022-10-13T14:00:21;16.10;99.90
24254;DHT22;12381;51.152;4.172;2022-10-13T14:02:47;16.00;99.90
24254;DHT22;12381;51.152;4.172;2022-10-13T14:05:13;16.00;99.90
24254;DHT22;12381;51.152;4.172;2022-10-13T14:07:39;16.00;99.90
24254;DHT22;12381;51.152;4.172;2022-10-13T14:10:05;16.00;99.90
24254;DHT22;12381;51.152;4.172;2022-10-13T14:12:32;16.00;99.90
24254;DHT22;12381;51.152;4.172;2022-10-13T14:14:58;16.00;99.90
24254;DHT22;12381;51.152;4.172;2022-10-13T14:17:25;16.00;99.90
24254;DHT22;12381;51.152;4.172;2022-10-13T14:19:50;16.10;99.90
24254;DHT22;12381;51.152;4.172;2022-10-13T14:22:16;16.00;99.90
24254;DHT22;12381;51.152;4.172;2022-10-13T14:24:42;15.90;99.90
24254;DHT22;12381;51.152;4.172;2022-10-13T14:27:07;16.00;99.90
24254;DHT22;12381;51.152;4.172;2022-10-13T14:29:34;15.90;99.90
24254;DHT22;12381;51.152;4.172;2022-10-13T14:32:00;15.90;99.90
24254;DHT22;12381;51.152;4.172;2022-10-13T14:34:25;15.90;99.90
24254;DHT22;12381;51.152;4.172;2022-10-13T14:36:51;15.90;99.90
24254;DHT22;12381;51.152;4.172;2022-10-13T14:39:17;15.90;99.90
24254;DHT22;12381;51.152;4.172;2022-10-13T14:41:43;15.90;99.90
24254;DHT22;12381;51.152;4.172;2022-10-13T14:44:10;15.80;99.90
24254;DHT22;12381;51.152;4.172;2022-10-13T14:46:36;15.80;99.90
24254;DHT22;12381;51.152;4.172;2022-10-13T14:49:02;15.80;99.90
24254;DHT22;12381;51.152;4.172;2022-10-13T14:51:28;15.80;99.90
24254;DHT22;12381;51.152;4.172;2022-10-13T14:53:54;15.80;99.90
24254;DHT22;12381;51.152;4.172;2022-10-13T14:56:22;15.80;99.90
24254;DHT22;12381;51.152;4.172;2022-10-13T14:58:49;15.80;99.90
24254;DHT22;12381;51.152;4.172;2022-10-13T15:01:16;15.90;99.90
24254;DHT22;12381;51.152;4.172;2022-10-13T15:03:42;16.00;99.90
24254;DHT22;12381;51.152;4.172;2022-10-13T15:06:16;15.90;99.90
24254;DHT22;12381;51.152;4.172;2022-10-13T15:08:42;15.80;99.90
24254;DHT22;12381;51.152;4.172;2022-10-13T15:11:08;15.80;99.90
24254;DHT22;12381;51.152;4.172;2022-10-13T15:13:35;15.70;99.90
24254;DHT22;12381;51.152;4.172;2022-10-13T15:16:01;15.70;99.90
24254;DHT22;12381;51.152;4.172;2022-10-13T15:18:29;15.70;99.90
24254;DHT22;12381;51.152;4.172;2022-10-13T15:20:55;15.70;99.90
24254;DHT22;12381;51.152;4.172;2022-10-13T15:23:21;15.70;99.90
24254;DHT22;12381;51.152;4.172;2022-10-13T15:25:55;15.70;99.90
24254;DHT22;12381;51.152;4.172;2022-10-13T15:28:22;15.70;99.90
24254;DHT22;12381;51.152;4.172;2022-10-13T15:30:49;15.70;99.90
24254;DHT22;12381;51.152;4.172;2022-10-13T15:33:15;15.70;99.90
24254;DHT22;12381;51.152;4.172;2022-10-13T15:35:40;15.60;99.90
24254;DHT22;12381;51.152;4.172;2022-10-13T15:38:06;15.60;99.90
24254;DHT22;12381;51.152;4.172;2022-10-13T15:40:32;15.60;99.90
24254;DHT22;12381;51.152;4.172;2022-10-13T15:42:58;15.70;99.90
24254;DHT22;12381;51.152;4.172;2022-10-13T15:45:24;15.70;99.90
24254;DHT22;12381;51.152;4.172;2022-10-13T15:47:50;15.70;99.90
24254;DHT22;12381;51.152;4.172;2022-10-13T15:50:16;15.70;99.90
24254;DHT22;12381;51.152;4.172;2022-10-13T15:52:43;15.70;99.90
24254;DHT22;12381;51.152;4.172;2022-10-13T15:55:10;15.70;99.90
24254;DHT22;12381;51.152;4.172;2022-10-13T15:57:36;15.80;99.90
24254;DHT22;12381;51.152;4.172;2022-10-13T16:00:04;15.70;99.90
24254;DHT22;12381;51.152;4.172;2022-10-13T16:02:30;15.70;99.90
24254;DHT22;12381;51.152;4.172;2022-10-13T16:04:56;15.70;99.90
24254;DHT22;12381;51.152;4.172;2022-10-13T16:07:23;15.70;99.90
24254;DHT22;12381;51.152;4.172;2022-10-13T16:09:48;15.70;99.90
24254;DHT22;12381;51.152;4.172;2022-10-13T16:12:14;15.60;99.90
24254;DHT22;12381;51.152;4.172;2022-10-13T16:14:40;15.60;99.90
24254;DHT22;12381;51.152;4.172;2022-10-13T16:17:06;15.70;99.90
24254;DHT22;12381;51.152;4.172;2022-10-13T16:19:31;15.70;99.90
24254;DHT22;12381;51.152;4.172;2022-10-13T16:21:57;15.70;99.90
24254;DHT22;12381;51.152;4.172;2022-10-13T16:24:22;15.60;99.90
24254;DHT22;12381;51.152;4.172;2022-10-13T16:26:48;15.60;99.90
24254;DHT22;12381;51.152;4.172;2022-10-13T16:29:14;15.60;99.90
24254;DHT22;12381;51.152;4.172;2022-10-13T16:31:39;15.60;99.90
24254;DHT22;12381;51.152;4.172;2022-10-13T16:34:05;15.60;99.90
24254;DHT22;12381;51.152;4.172;2022-10-13T16:36:31;15.60;99.90
24254;DHT22;12381;51.152;4.172;2022-10-13T16:38:57;15.60;99.90
24254;DHT22;12381;51.152;4.172;2022-10-13T16:41:23;15.50;99.90
24254;DHT22;12381;51.152;4.172;2022-10-13T16:43:49;15.50;99.90
24254;DHT22;12381;51.152;4.172;2022-10-13T16:46:17;15.50;99.90
24254;DHT22;12381;51.152;4.172;2022-10-13T16:48:43;15.50;99.90
24254;DHT22;12381;51.152;4.172;2022-10-13T16:51:13;15.50;99.90
24254;DHT22;12381;51.152;4.172;2022-10-13T16:53:39;15.50;99.90
24254;DHT22;12381;51.152;4.172;2022-10-13T16:56:06;15.50;99.90
24254;DHT22;12381;51.152;4.172;2022-10-13T16:58:32;15.60;99.90
24254;DHT22;12381;51.152;4.172;2022-10-13T17:01:06;15.50;99.90
24254;DHT22;12381;51.152;4.172;2022-10-13T17:03:35;15.50;99.90
24254;DHT22;12381;51.152;4.172;2022-10-13T17:06:01;15.50;99.90
24254;DHT22;12381;51.152;4.172;2022-10-13T17:08:27;15.50;99.90
24254;DHT22;12381;51.152;4.172;2022-10-13T17:10:53;15.50;99.90
24254;DHT22;12381;51.152;4.172;2022-10-13T17:13:19;15.50;99.90
24254;DHT22;12381;51.152;4.172;2022-10-13T17:15:51;15.50;99.90
24254;DHT22;12381;51.152;4.172;2022-10-13T17:18:17;15.50;99.90
24254;DHT22;12381;51.152;4.172;2022-10-13T17:20:53;15.50;99.90
24254;DHT22;12381;51.152;4.172;2022-10-13T17:23:19;15.50;99.90
24254;DHT22;12381;51.152;4.172;2022-10-13T17:25:45;15.50;99.90
24254;DHT22;12381;51.152;4.172;2022-10-13T17:28:11;15.50;99.90
24254;DHT22;12381;51.152;4.172;2022-10-13T17:30:36;15.50;99.90
24254;DHT22;12381;51.152;4.172;2022-10-13T17:33:02;15.50;99.90